Time;durP1;ratioP1;P1;durP2;ratioP2;P2;SDS_P1;SDS_P2;PMS_P1;PMS_P2;Temp;Humidity;BMP_temperature;BMP_pressure;BME280_temperature;BME280_humidity;BME280_pressure;Samples;Min_cycle;Max_cycle;Signal;HPM_P1;HPM_P2
2022/05/27 00:01:40;;;;;;;;;;;;;;;12.77;68.77;97115.63;5056028;28;20345;-75
2022/05/27 00:04:06;;;;;;;;;;;;;;;12.77;69.13;97116.41;5056035;28;20002;-76
2022/05/27 00:06:32;;;;;;;;;;;;;;;12.76;68.76;97109.53;5056116;28;20006;-75
2022/05/27 00:08:58;;;;;;;;;;;;;;;12.76;68.99;97112.16;5056200;28;19954;-75
2022/05/27 00:11:24;;;;;;;;;;;;;;;12.75;69.00;97110.56;5055507;28;19985;-75
2022/05/27 00:13:51;;;;;;;;;;;;;;;12.72;69.27;97108.34;5055974;28;20019;-75
2022/05/27 00:16:17;;;;;;;;;;;;;;;12.70;69.38;97101.69;5055763;28;19956;-76
2022/05/27 00:18:43;;;;;;;;;;;;;;;12.66;69.20;97092.59;5055980;28;19959;-75
2022/05/27 00:21:10;;;;;;;;;;;;;;;12.64;69.11;97097.28;5055782;28;20463;-76
2022/05/27 00:23:37;;;;;;;;;;;;;;;12.62;69.39;97096.69;5055612;28;19970;-76
2022/05/27 00:26:03;;;;;;;;;;;;;;;12.60;69.51;97091.66;5055765;28;19965;-76
2022/05/27 00:28:29;;;;;;;;;;;;;;;12.58;69.26;97091.88;5037816;28;19957;-76
2022/05/27 00:30:55;;;;;;;;;;;;;;;12.57;69.63;97092.88;5038029;28;19966;-76
2022/05/27 00:33:21;;;;;;;;;;;;;;;12.57;68.98;97082.34;5055422;28;19977;-76
2022/05/27 00:35:47;;;;;;;;;;;;;;;12.57;69.73;97084.19;5055816;28;20344;-76
2022/05/27 00:38:13;;;;;;;;;;;;;;;12.52;69.70;97086.66;5055547;28;19944;-76
2022/05/27 00:40:41;;;;;;;;;;;;;;;12.51;69.88;97092.94;5055124;28;19968;-76
2022/05/27 00:43:08;;;;;;;;;;;;;;;12.48;69.56;97085.47;5055373;28;20315;-76
2022/05/27 00:45:35;;;;;;;;;;;;;;;12.47;69.74;97089.91;5055396;28;19962;-76
2022/05/27 00:48:03;;;;;;;;;;;;;;;12.45;69.73;97091.97;5055079;28;19946;-77
2022/05/27 00:50:31;;;;;;;;;;;;;;;12.44;69.62;97090.34;5054761;28;19947;-76
2022/05/27 00:52:56;;;;;;;;;;;;;;;12.42;69.82;97094.22;5054882;28;19981;-77
2022/05/27 00:55:26;;;;;;;;;;;;;;;12.41;69.59;97092.59;5055155;28;20422;-76
2022/05/27 00:57:55;;;;;;;;;;;;;;;12.38;70.30;97088.56;5054978;28;19954;-76
2022/05/27 01:00:22;;;;;;;;;;;;;;;12.35;69.95;97079.28;5055133;28;19959;-76
2022/05/27 01:02:49;;;;;;;;;;;;;;;12.33;69.73;97081.31;5054926;28;19959;-76
2022/05/27 01:05:17;;;;;;;;;;;;;;;12.28;70.03;97081.13;5054988;28;19954;-76
2022/05/27 01:07:43;;;;;;;;;;;;;;;12.27;69.83;97070.84;5036787;28;19949;-78
2022/05/27 01:10:11;;;;;;;;;;;;;;;12.26;70.25;97074.50;5055208;28;19965;-76
2022/05/27 01:12:43;;;;;;;;;;;;;;;12.24;70.23;97068.63;5054596;28;19985;-77
2022/05/27 01:15:15;;;;;;;;;;;;;;;12.22;70.08;97073.31;5055102;28;20284;-76
2022/05/27 01:17:59;;;;;;;;;;;;;;;12.21;70.12;97066.44;5054748;28;19955;-77
2022/05/27 01:20:34;;;;;;;;;;;;;;;12.18;70.20;97063.22;5036750;28;19948;-76
2022/05/27 01:23:01;;;;;;;;;;;;;;;12.15;70.51;97063.63;5054707;28;19956;-76
2022/05/27 01:25:36;;;;;;;;;;;;;;;12.15;69.96;97063.63;5054576;28;19949;-76
2022/05/27 01:28:12;;;;;;;;;;;;;;;12.13;70.28;97065.66;5054410;28;19955;-76
2022/05/27 01:30:53;;;;;;;;;;;;;;;12.13;70.31;97056.97;5054837;28;20398;-76
2022/05/27 01:33:42;;;;;;;;;;;;;;;12.09;70.37;97061.06;5054828;28;19982;-76
2022/05/27 01:36:27;;;;;;;;;;;;;;;12.07;70.13;97055.19;5046061;28;19953;-76
2022/05/27 01:39:19;;;;;;;;;;;;;;;12.05;70.67;97058.03;5054117;28;19961;-76
2022/05/27 01:41:51;;;;;;;;;;;;;;;12.03;70.95;97057.44;5054250;28;19959;-76
2022/05/27 01:44:30;;;;;;;;;;;;;;;12.01;70.69;97056.03;5054491;28;19957;-76
2022/05/27 01:46:56;;;;;;;;;;;;;;;11.99;70.59;97043.13;5054124;28;19964;-76
2022/05/27 01:49:30;;;;;;;;;;;;;;;11.97;70.90;97059.09;5054721;28;20414;-76
2022/05/27 01:51:56;;;;;;;;;;;;;;;11.95;70.74;97050.63;5053922;28;20443;-77
2022/05/27 01:54:31;;;;;;;;;;;;;;;11.93;71.11;97043.97;5054138;28;19962;-77
2022/05/27 01:57:01;;;;;;;;;;;;;;;11.92;71.31;97058.13;5037199;28;20407;-76
2022/05/27 01:59:47;;;;;;;;;;;;;;;11.90;71.37;97063.56;5053946;28;19957;-76
2022/05/27 02:02:18;;;;;;;;;;;;;;;11.88;70.94;97051.63;5012048;28;19957;-76
2022/05/27 02:04:48;;;;;;;;;;;;;;;11.88;71.28;97060.34;5053846;28;19959;-76
2022/05/27 02:07:23;;;;;;;;;;;;;;;11.87;71.57;97056.09;5053908;28;19963;-75
2022/05/27 02:09:53;;;;;;;;;;;;;;;11.83;71.25;97051.47;5053718;28;19958;-77
2022/05/27 02:12:40;;;;;;;;;;;;;;;11.80;71.78;97047.44;5052911;28;19982;-76
2022/05/27 02:15:12;;;;;;;;;;;;;;;11.77;71.27;97042.59;5054001;28;19968;-75
2022/05/27 02:17:43;;;;;;;;;;;;;;;11.71;71.46;97038.97;5054012;28;20370;-77
2022/05/27 02:20:16;;;;;;;;;;;;;;;11.68;71.44;97042.03;5035482;28;19957;-75
2022/05/27 02:22:45;;;;;;;;;;;;;;;11.65;71.56;97041.66;5053452;28;19956;-76
2022/05/27 02:25:13;;;;;;;;;;;;;;;11.63;72.20;97039.22;5053834;28;20405;-76
2022/05/27 02:27:39;;;;;;;;;;;;;;;11.62;72.18;97040.25;5053571;28;19963;-76
2022/05/27 02:30:07;;;;;;;;;;;;;;;11.61;71.90;97035.19;5053467;28;20324;-77
2022/05/27 02:32:45;;;;;;;;;;;;;;;11.60;72.18;97038.84;5053526;28;19968;-77
2022/05/27 02:35:11;;;;;;;;;;;;;;;11.58;72.27;97023.31;5041607;28;19984;-77
2022/05/27 02:37:44;;;;;;;;;;;;;;;11.54;71.94;97015.03;5053708;28;19962;-77
2022/05/27 02:40:15;;;;;;;;;;;;;;;11.54;72.24;97027.34;5053632;28;19962;-76
2022/05/27 02:42:59;;;;;;;;;;;;;;;11.52;72.46;97022.31;5053294;28;19974;-75
2022/05/27 02:45:34;;;;;;;;;;;;;;;11.51;72.30;97019.91;5053212;28;20424;-76
2022/05/27 02:48:15;;;;;;;;;;;;;;;11.48;72.41;97020.31;5053382;28;19957;-76
2022/05/27 02:50:47;;;;;;;;;;;;;;;11.41;72.58;97017.72;5053072;28;19959;-76
2022/05/27 02:53:28;;;;;;;;;;;;;;;11.35;72.77;97006.22;5053211;28;19966;-75
2022/05/27 02:55:56;;;;;;;;;;;;;;;11.32;72.70;97018.97;5052953;28;19950;-76
2022/05/27 02:58:22;;;;;;;;;;;;;;;11.32;72.65;97024.25;5053704;28;19948;-75
2022/05/27 03:00:48;;;;;;;;;;;;;;;11.30;72.95;97026.25;5052807;28;19973;-75
2022/05/27 03:03:14;;;;;;;;;;;;;;;11.29;72.89;97017.56;5053497;28;20410;-75
2022/05/27 03:05:59;;;;;;;;;;;;;;;11.28;72.62;97013.34;5053315;28;19967;-75
2022/05/27 03:08:40;;;;;;;;;;;;;;;11.26;72.64;97004.06;5052961;28;19951;-76
2022/05/27 03:11:13;;;;;;;;;;;;;;;11.24;73.00;97006.09;5053196;28;19992;-74
2022/05/27 03:13:59;;;;;;;;;;;;;;;11.22;73.37;97010.75;5053313;28;19977;-74
2022/05/27 03:16:34;;;;;;;;;;;;;;;11.19;72.97;97001.44;5056994;28;19945;-76
2022/05/27 03:19:12;;;;;;;;;;;;;;;11.19;72.61;97014.56;5056778;28;19964;-75
2022/05/27 03:21:44;;;;;;;;;;;;;;;11.16;72.93;97009.75;5055398;28;19960;-75
2022/05/27 03:24:19;;;;;;;;;;;;;;;11.14;72.58;97002.06;5055657;28;19958;-76
2022/05/27 03:26:54;;;;;;;;;;;;;;;11.15;73.13;97000.25;5046652;28;19953;-76
2022/05/27 03:29:28;;;;;;;;;;;;;;;11.13;72.69;97010.97;5056722;28;20320;-76
2022/05/27 03:32:03;;;;;;;;;;;;;;;11.13;72.91;97024.09;5056722;28;19960;-76
2022/05/27 03:34:42;;;;;;;;;;;;;;;11.14;73.34;97025.69;5056737;28;19952;-76
2022/05/27 03:37:28;;;;;;;;;;;;;;;11.14;73.31;97028.31;5056580;28;19946;-77
2022/05/27 03:40:03;;;;;;;;;;;;;;;11.15;73.27;97023.91;5056731;28;19963;-74
2022/05/27 03:42:30;;;;;;;;;;;;;;;11.15;73.21;97010.78;5055833;28;19955;-77
2022/05/27 03:45:00;;;;;;;;;;;;;;;11.17;73.59;97027.09;5056703;28;19953;-76
2022/05/27 03:47:26;;;;;;;;;;;;;;;11.15;73.33;97024.69;5038712;28;20100;-77
2022/05/27 03:49:52;;;;;;;;;;;;;;;11.15;73.73;97032.56;5056955;28;19963;-76
2022/05/27 03:52:20;;;;;;;;;;;;;;;11.14;73.51;97032.75;5056491;28;19973;-76
2022/05/27 03:54:45;;;;;;;;;;;;;;;11.14;73.79;97035.38;5056256;28;20029;-77
2022/05/27 03:57:11;;;;;;;;;;;;;;;11.12;73.54;97032.97;5056468;28;20042;-77
2022/05/27 03:59:37;;;;;;;;;;;;;;;11.13;73.66;97037.22;5056413;28;20434;-77
2022/05/27 04:02:03;;;;;;;;;;;;;;;11.13;73.71;97029.34;5056193;28;19954;-77
2022/05/27 04:04:30;;;;;;;;;;;;;;;11.12;74.04;97040.84;5056100;28;19964;-77
2022/05/27 04:06:56;;;;;;;;;;;;;;;11.13;73.86;97044.28;5056050;28;19957;-77
2022/05/27 04:09:23;;;;;;;;;;;;;;;11.11;73.96;97038.44;5056076;28;19955;-77
2022/05/27 04:11:50;;;;;;;;;;;;;;;11.11;73.68;97033.19;5053887;28;19984;-77
2022/05/27 04:14:16;;;;;;;;;;;;;;;11.12;73.85;97042.66;5055934;28;19976;-76
2022/05/27 04:16:42;;;;;;;;;;;;;;;11.12;73.54;97040.84;5055969;28;19956;-77
2022/05/27 04:19:09;;;;;;;;;;;;;;;11.17;74.02;97048.91;5055653;28;20048;-76
2022/05/27 04:21:35;;;;;;;;;;;;;;;11.24;73.77;97053.34;5056371;28;19949;-76
2022/05/27 04:24:01;;;;;;;;;;;;;;;11.32;73.98;97053.13;5055361;28;19948;-76
2022/05/27 04:26:28;;;;;;;;;;;;;;;11.42;73.75;97044.78;5054716;28;19968;-77
2022/05/27 04:28:53;;;;;;;;;;;;;;;11.52;73.68;97045.16;5055271;28;19951;-77
2022/05/27 04:31:19;;;;;;;;;;;;;;;11.62;73.98;97050.75;5055764;28;20068;-76
2022/05/27 04:33:45;;;;;;;;;;;;;;;11.70;73.48;97041.84;5055688;28;19998;-77
2022/05/27 04:36:11;;;;;;;;;;;;;;;11.82;74.04;97052.47;5055906;28;19958;-76
2022/05/27 04:38:38;;;;;;;;;;;;;;;11.90;73.77;97036.50;5055750;28;20364;-77
2022/05/27 04:41:04;;;;;;;;;;;;;;;11.97;73.96;97039.91;5055607;28;19961;-77
2022/05/27 04:43:30;;;;;;;;;;;;;;;11.97;73.49;97039.91;5055908;28;20328;-77
2022/05/27 04:45:56;;;;;;;;;;;;;;;11.92;73.62;97037.09;5037953;28;19964;-77
2022/05/27 04:48:22;;;;;;;;;;;;;;;11.90;74.43;97039.13;5055496;28;19953;-77
2022/05/27 04:50:48;;;;;;;;;;;;;;;11.83;73.84;97038.34;5055687;28;19986;-77
2022/05/27 04:53:14;;;;;;;;;;;;;;;11.86;74.16;97032.66;5055575;28;19982;-77
2022/05/27 04:55:41;;;;;;;;;;;;;;;11.87;74.34;97029.03;5055433;28;19960;-76
2022/05/27 04:58:07;;;;;;;;;;;;;;;11.87;74.27;97031.66;5055286;28;19961;-76
2022/05/27 05:00:51;;;;;;;;;;;;;;;11.91;75.18;97033.66;5055311;28;19951;-77
2022/05/27 05:03:17;;;;;;;;;;;;;;;11.94;74.78;97035.06;5055155;28;19962;-77
2022/05/27 05:05:50;;;;;;;;;;;;;;;11.97;75.85;97043.34;5054492;28;19959;-77
2022/05/27 05:08:28;;;;;;;;;;;;;;;12.01;75.35;97029.75;5053934;28;19999;-77
2022/05/27 05:10:55;;;;;;;;;;;;;;;12.08;77.28;97030.53;5055217;28;19962;-76
2022/05/27 05:13:21;;;;;;;;;;;;;;;12.16;75.44;97027.66;5054854;28;19975;-77
2022/05/27 05:15:46;;;;;;;;;;;;;;;12.23;75.34;97028.41;5055030;28;20045;-77
2022/05/27 05:18:12;;;;;;;;;;;;;;;12.38;74.84;97038.59;5053693;28;20379;-77
2022/05/27 05:20:38;;;;;;;;;;;;;;;12.55;74.86;97034.41;5054236;28;19988;-77
2022/05/27 05:23:04;;;;;;;;;;;;;;;12.65;74.58;97035.75;5055174;28;20004;-77
2022/05/27 05:25:30;;;;;;;;;;;;;;;12.73;74.76;97038.91;5054959;28;20328;-77
2022/05/27 05:27:56;;;;;;;;;;;;;;;12.79;74.41;97032.78;5054903;28;20009;-77
2022/05/27 05:30:24;;;;;;;;;;;;;;;12.89;74.24;97031.47;5054674;28;20458;-77
2022/05/27 05:32:50;;;;;;;;;;;;;;;13.03;74.46;97043.47;5054601;28;19961;-77
2022/05/27 05:35:16;;;;;;;;;;;;;;;13.08;73.80;97034.91;5055011;28;19981;-77
2022/05/27 05:37:42;;;;;;;;;;;;;;;13.07;74.39;97034.13;5054240;28;19958;-77
2022/05/27 05:40:18;;;;;;;;;;;;;;;12.99;73.73;97024.66;5051332;28;19960;-77
2022/05/27 05:42:46;;;;;;;;;;;;;;;12.96;74.46;97043.53;5054681;28;19964;-77
2022/05/27 05:45:18;;;;;;;;;;;;;;;12.96;75.25;97046.19;5054025;28;19955;-77
2022/05/27 05:47:44;;;;;;;;;;;;;;;12.99;74.59;97044.94;5054233;28;19950;-77
2022/05/27 05:50:11;;;;;;;;;;;;;;;13.00;74.81;97047.34;5054251;28;19945;-77
2022/05/27 05:52:37;;;;;;;;;;;;;;;12.96;75.03;97046.19;5054105;28;19967;-77
2022/05/27 05:55:03;;;;;;;;;;;;;;;13.00;75.43;97054.44;5054122;28;19958;-77
2022/05/27 05:57:29;;;;;;;;;;;;;;;13.04;76.26;97050.38;5054315;28;19973;-77
2022/05/27 05:59:55;;;;;;;;;;;;;;;13.08;75.54;97048.06;5054171;28;20402;-77
2022/05/27 06:02:21;;;;;;;;;;;;;;;13.09;75.52;97037.34;5054051;28;19959;-77
2022/05/27 06:04:47;;;;;;;;;;;;;;;13.09;75.40;97044.44;5054439;28;20452;-77
2022/05/27 06:07:13;;;;;;;;;;;;;;;13.11;75.42;97040.56;5054250;28;19959;-77
2022/05/27 06:09:40;;;;;;;;;;;;;;;13.13;75.30;97043.78;5054016;28;20046;-77
2022/05/27 06:12:06;;;;;;;;;;;;;;;13.17;74.70;97039.69;5053845;28;19994;-77
2022/05/27 06:14:32;;;;;;;;;;;;;;;13.21;76.17;97045.31;5053716;28;20495;-77
2022/05/27 06:16:58;;;;;;;;;;;;;;;13.24;76.79;97036.97;5053656;28;19967;-77
2022/05/27 06:19:24;;;;;;;;;;;;;;;13.25;75.99;97037.75;5053581;28;19946;-77
2022/05/27 06:21:50;;;;;;;;;;;;;;;13.29;76.01;97047.69;5053458;28;20461;-77
2022/05/27 06:24:16;;;;;;;;;;;;;;;13.33;76.90;97043.59;5053554;28;19970;-77
2022/05/27 06:26:42;;;;;;;;;;;;;;;13.38;76.65;97042.94;5053783;28;19962;-77
2022/05/27 06:34:37;;;;;;;;;;;;;;;13.48;75.65;97042.38;5035686;28;19977;-77
2022/05/27 06:37:12;;;;;;;;;;;;;;;13.55;75.65;97041.28;5053326;28;20058;-77
2022/05/27 06:39:39;;;;;;;;;;;;;;;13.63;75.32;97036.72;5053855;28;19990;-77
2022/05/27 06:42:19;;;;;;;;;;;;;;;13.70;76.25;97040.91;5053428;28;19953;-78
2022/05/27 06:44:45;;;;;;;;;;;;;;;13.77;75.73;97032.91;5035836;28;19980;-78
2022/05/27 06:47:13;;;;;;;;;;;;;;;13.85;75.69;97034.44;5053446;28;20398;-77
2022/05/27 06:49:44;;;;;;;;;;;;;;;13.90;75.97;97045.09;5056063;28;19962;-77
2022/05/27 06:52:10;;;;;;;;;;;;;;;13.94;74.67;97043.63;5058112;28;19957;-77
2022/05/27 06:54:36;;;;;;;;;;;;;;;13.97;75.15;97038.72;5057688;28;20464;-78
2022/05/27 06:57:04;;;;;;;;;;;;;;;14.05;74.79;97042.03;5057646;28;19957;-77
2022/05/27 06:59:30;;;;;;;;;;;;;;;14.09;74.40;97048.47;5057161;28;19945;-77
2022/05/27 07:01:56;;;;;;;;;;;;;;;14.11;74.57;97047.25;5057111;28;19961;-77
2022/05/27 07:04:22;;;;;;;;;;;;;;;14.12;74.55;97048.84;5057271;28;19952;-77
2022/05/27 07:06:48;;;;;;;;;;;;;;;14.15;74.36;97050.22;5057263;28;20409;-77
2022/05/27 07:09:19;;;;;;;;;;;;;;;14.17;74.37;97043.72;5057079;28;19962;-78
2022/05/27 07:11:46;;;;;;;;;;;;;;;14.19;74.69;97046.94;5056981;28;19972;-78
2022/05/27 07:14:13;;;;;;;;;;;;;;;14.26;74.73;97056.56;5057003;28;19984;-78
2022/05/27 07:16:40;;;;;;;;;;;;;;;14.32;74.60;97056.47;5057151;28;19959;-77
2022/05/27 07:19:06;;;;;;;;;;;;;;;14.36;74.35;97052.34;5056727;28;19981;-78
2022/05/27 07:21:40;;;;;;;;;;;;;;;14.38;73.46;97047.66;5056915;28;20016;-78
2022/05/27 07:24:09;;;;;;;;;;;;;;;14.41;74.17;97049.03;5057153;28;20325;-77
2022/05/27 07:26:35;;;;;;;;;;;;;;;14.44;73.33;97045.13;5056735;28;19950;-77
2022/05/27 07:29:01;;;;;;;;;;;;;;;14.45;74.35;97052.81;5056792;28;19960;-78
2022/05/27 07:31:27;;;;;;;;;;;;;;;14.48;73.17;97049.72;5056834;28;19984;-78
2022/05/27 07:33:53;;;;;;;;;;;;;;;14.54;72.48;97048.00;5056618;28;19980;-78
2022/05/27 07:36:19;;;;;;;;;;;;;;;14.57;72.01;97052.84;5056825;28;19953;-76
2022/05/27 07:38:45;;;;;;;;;;;;;;;14.57;72.27;97039.66;5056414;28;20330;-76
2022/05/27 07:41:11;;;;;;;;;;;;;;;14.60;71.14;97036.56;5056702;28;19949;-77
2022/05/27 07:43:38;;;;;;;;;;;;;;;14.64;71.68;97036.94;5055823;28;19962;-77
2022/05/27 07:46:04;;;;;;;;;;;;;;;14.68;71.07;97035.41;5056400;28;19998;-77
2022/05/27 07:48:30;;;;;;;;;;;;;;;14.71;70.60;97035.75;5056504;28;19953;-77
2022/05/27 07:50:56;;;;;;;;;;;;;;;14.77;71.57;97037.47;5056622;28;19954;-77
2022/05/27 07:53:23;;;;;;;;;;;;;;;14.85;71.19;97038.97;5056129;28;19968;-77
2022/05/27 07:55:49;;;;;;;;;;;;;;;14.91;71.20;97035.44;5056232;28;19953;-77
2022/05/27 07:58:15;;;;;;;;;;;;;;;14.97;71.24;97039.78;5056434;28;19954;-78
2022/05/27 08:00:41;;;;;;;;;;;;;;;14.99;70.21;97037.72;5055258;28;19997;-77
2022/05/27 08:03:07;;;;;;;;;;;;;;;15.02;70.33;97042.53;5038461;28;19952;-77
2022/05/27 08:05:33;;;;;;;;;;;;;;;15.04;70.46;97046.78;5056242;28;19967;-77
2022/05/27 08:08:00;;;;;;;;;;;;;;;15.02;70.30;97047.81;5056161;28;19956;-77
2022/05/27 08:10:29;;;;;;;;;;;;;;;15.05;70.12;97046.53;5055636;28;19960;-76
2022/05/27 08:12:55;;;;;;;;;;;;;;;15.05;70.32;97041.25;5056411;28;20002;-76
2022/05/27 08:15:21;;;;;;;;;;;;;;;15.07;70.28;97041.03;5055772;28;19959;-77
2022/05/27 08:17:47;;;;;;;;;;;;;;;15.04;69.94;97042.31;5056125;28;19951;-75
2022/05/27 08:20:17;;;;;;;;;;;;;;;15.04;69.63;97042.31;5055902;28;19957;-77
2022/05/27 08:22:42;;;;;;;;;;;;;;;15.09;70.41;97038.97;5055618;28;19951;-77
2022/05/27 08:25:09;;;;;;;;;;;;;;;15.19;70.82;97052.38;5055831;28;19997;-77
2022/05/27 08:27:34;;;;;;;;;;;;;;;15.30;69.34;97045.47;5055405;28;20296;-77
2022/05/27 08:30:02;;;;;;;;;;;;;;;15.36;68.68;97042.69;5056205;28;19972;-77
2022/05/27 08:32:30;;;;;;;;;;;;;;;15.42;68.95;97047.06;5055694;28;19950;-77
2022/05/27 08:40:43;;;;;;;;;;;;;;;15.52;67.91;97037.72;5037854;28;19965;-77
2022/05/27 08:43:24;;;;;;;;;;;;;;;15.56;68.24;97050.25;5040366;28;19961;-77
2022/05/27 08:45:59;;;;;;;;;;;;;;;15.59;68.11;97049.75;5055277;28;20047;-78
2022/05/27 08:48:26;;;;;;;;;;;;;;;15.62;68.13;97057.25;5046893;28;19950;-77
2022/05/27 08:50:54;;;;;;;;;;;;;;;15.63;68.05;97056.19;5055125;28;20413;-77
2022/05/27 08:53:52;;;;;;;;;;;;;;;15.61;67.80;97062.75;5054610;28;19971;-77
2022/05/27 08:59:27;;;;;;;;;;;;;;;15.64;68.06;97056.97;5055097;28;19966;-77
2022/05/27 09:01:59;;;;;;;;;;;;;;;15.67;67.82;97045.94;5055076;28;19957;-77
2022/05/27 09:04:41;;;;;;;;;;;;;;;15.70;68.65;97069.25;5055077;28;19955;-77
2022/05/27 09:07:13;;;;;;;;;;;;;;;15.73;67.98;97060.13;5037560;28;19979;-78
2022/05/27 09:09:39;;;;;;;;;;;;;;;15.77;68.09;97071.78;5054116;28;19969;-78
2022/05/27 09:12:23;;;;;;;;;;;;;;;15.80;68.13;97060.75;5054267;28;19979;-77
2022/05/27 09:14:57;;;;;;;;;;;;;;;15.87;67.45;97050.84;5046967;28;19977;-78
2022/05/27 09:17:35;;;;;;;;;;;;;;;16.02;67.17;97050.31;5054500;28;20364;-77
2022/05/27 09:20:25;;;;;;;;;;;;;;;16.17;66.81;97047.16;5054991;28;19955;-78
2022/05/27 09:22:50;;;;;;;;;;;;;;;16.27;66.29;97036.72;5054292;28;19964;-76
2022/05/27 09:25:16;;;;;;;;;;;;;;;16.56;67.61;97048.03;5054820;28;20389;-74
2022/05/27 09:27:48;;;;;;;;;;;;;;;16.98;65.66;97039.69;5054036;28;19950;-74
2022/05/27 09:30:16;;;;;;;;;;;;;;;17.41;63.15;97008.97;5054697;28;19958;-76
2022/05/27 09:32:47;;;;;;;;;;;;;;;17.66;62.03;96994.38;5054961;28;19962;-76
2022/05/27 09:35:17;;;;;;;;;;;;;;;17.80;59.99;96978.84;5054146;28;19959;-76
2022/05/27 09:37:45;;;;;;;;;;;;;;;17.82;61.22;96997.97;5054217;28;20430;-74
2022/05/27 09:40:28;;;;;;;;;;;;;;;17.80;59.33;96971.69;5054371;28;19954;-74
2022/05/27 09:43:12;;;;;;;;;;;;;;;17.93;60.92;96989.09;5054273;28;19958;-74
2022/05/27 09:45:40;;;;;;;;;;;;;;;18.22;59.93;96980.84;5054524;28;19959;-74
2022/05/27 09:48:07;;;;;;;;;;;;;;;18.37;58.20;96974.84;5054257;28;19957;-74
2022/05/27 09:50:39;;;;;;;;;;;;;;;18.25;57.43;96959.09;5053970;28;20293;-74
2022/05/27 09:53:07;;;;;;;;;;;;;;;18.14;57.71;96957.41;5054400;28;19957;-74
2022/05/27 09:55:39;;;;;;;;;;;;;;;18.15;57.25;96954.50;5053884;28;20433;-74
2022/05/27 09:58:05;;;;;;;;;;;;;;;18.14;56.63;96944.13;5054179;28;20029;-74
2022/05/27 10:00:37;;;;;;;;;;;;;;;18.10;57.94;96951.00;5036336;28;19953;-74
2022/05/27 10:03:22;;;;;;;;;;;;;;;18.10;56.85;96956.31;5054008;28;20330;-74
2022/05/27 10:05:56;;;;;;;;;;;;;;;18.07;55.92;96930.28;5043602;28;19956;-74
2022/05/27 10:08:34;;;;;;;;;;;;;;;18.03;55.52;96919.38;5053781;28;19955;-74
2022/05/27 10:11:17;;;;;;;;;;;;;;;18.24;56.08;96942.34;5053556;28;19983;-74
2022/05/27 10:13:44;;;;;;;;;;;;;;;18.64;56.16;96921.63;5053747;28;19973;-74
2022/05/27 10:16:20;;;;;;;;;;;;;;;18.84;53.61;96897.06;5053938;28;19966;-74
2022/05/27 10:18:46;;;;;;;;;;;;;;;18.74;52.78;96879.19;5053719;28;19957;-74
2022/05/27 10:21:14;;;;;;;;;;;;;;;18.60;54.66;96910.72;5053911;28;20408;-74
2022/05/27 10:24:15;;;;;;;;;;;;;;;18.44;54.63;96912.50;5034070;28;19965;-74
2022/05/27 10:26:41;;;;;;;;;;;;;;;18.39;56.74;96936.34;5052501;28;19961;-74
2022/05/27 10:29:13;;;;;;;;;;;;;;;18.38;55.95;96924.16;5034970;28;20390;-73
2022/05/27 10:31:50;;;;;;;;;;;;;;;18.30;53.52;96897.28;5053324;28;19952;-74
2022/05/27 10:34:35;;;;;;;;;;;;;;;18.21;54.90;96913.69;5053269;28;19977;-74
2022/05/27 10:37:05;;;;;;;;;;;;;;;18.20;55.80;96917.38;5053327;28;19960;-74
2022/05/27 10:39:40;;;;;;;;;;;;;;;18.21;53.70;96902.25;5053578;28;20324;-74
2022/05/27 10:42:44;;;;;;;;;;;;;;;18.23;54.53;96897.50;4991062;28;19954;-74
2022/05/27 10:45:29;;;;;;;;;;;;;;;18.30;55.72;96918.50;5053660;28;19947;-74
2022/05/27 10:48:13;;;;;;;;;;;;;;;18.35;55.41;96903.44;5053806;28;19956;-74
2022/05/27 10:50:39;;;;;;;;;;;;;;;18.40;54.50;96889.38;5045669;28;19967;-74
2022/05/27 10:53:17;;;;;;;;;;;;;;;18.57;54.98;96894.50;5053451;28;19953;-74
2022/05/27 10:56:05;;;;;;;;;;;;;;;18.92;54.77;96891.25;5001841;28;19983;-74
2022/05/27 11:04:40;;;;;;;;;;;;;;;18.82;50.84;96854.00;5044169;28;19962;-74
2022/05/27 11:07:21;;;;;;;;;;;;;;;18.77;52.01;96861.91;5053162;28;19947;-74
2022/05/27 11:09:59;;;;;;;;;;;;;;;18.73;52.73;96876.78;5053083;28;19951;-74
2022/05/27 11:15:46;;;;;;;;;;;;;;;18.68;52.04;96861.63;5053359;28;19973;-74
2022/05/27 11:18:15;;;;;;;;;;;;;;;18.60;51.77;96860.25;5052956;28;19964;-74
2022/05/27 11:20:53;;;;;;;;;;;;;;;18.60;51.23;96841.66;5052880;28;20432;-74
2022/05/27 11:23:19;;;;;;;;;;;;;;;18.59;51.57;96852.56;5053366;28;19949;-74
2022/05/27 11:25:45;;;;;;;;;;;;;;;18.60;50.13;96825.72;5052987;28;20013;-74
2022/05/27 11:28:18;;;;;;;;;;;;;;;18.61;50.03;96821.22;5053044;28;19958;-74
2022/05/27 11:30:49;;;;;;;;;;;;;;;18.61;51.28;96837.94;5052974;28;19982;-74
2022/05/27 11:33:30;;;;;;;;;;;;;;;18.63;50.79;96832.38;5053088;28;20392;-74
2022/05/27 11:36:09;;;;;;;;;;;;;;;18.56;51.70;96845.91;5054701;28;19958;-74
2022/05/27 11:38:35;;;;;;;;;;;;;;;18.58;52.50;96864.22;5056781;28;19952;-74
2022/05/27 11:41:07;;;;;;;;;;;;;;;18.56;52.93;96847.75;5034376;28;19961;-74
2022/05/27 11:43:47;;;;;;;;;;;;;;;18.55;52.56;96849.59;5034166;28;19999;-74
2022/05/27 11:46:31;;;;;;;;;;;;;;;18.55;52.65;96848.81;5034730;28;20632;-74
2022/05/27 11:49:21;;;;;;;;;;;;;;;18.57;52.48;96849.34;5033115;28;19955;-74
2022/05/27 11:51:59;;;;;;;;;;;;;;;18.69;52.04;96839.31;5034478;28;19956;-74
2022/05/27 11:54:37;;;;;;;;;;;;;;;18.92;52.06;96840.75;5012067;28;20024;-74
2022/05/27 11:57:09;;;;;;;;;;;;;;;19.10;53.03;96850.09;5034263;28;19953;-74
2022/05/27 11:59:37;;;;;;;;;;;;;;;19.23;52.43;96854.09;5034281;28;19955;-74
2022/05/27 12:02:16;;;;;;;;;;;;;;;19.40;52.54;96840.56;5034023;28;19957;-74
2022/05/27 12:04:46;;;;;;;;;;;;;;;19.55;50.95;96829.94;5034035;28;19957;-74
2022/05/27 12:07:19;;;;;;;;;;;;;;;19.47;49.87;96812.66;5034308;28;19953;-74
2022/05/27 12:09:55;;;;;;;;;;;;;;;19.75;51.61;96829.16;5033480;28;19955;-74
2022/05/27 12:12:28;;;;;;;;;;;;;;;20.17;51.21;96814.72;5024008;28;19992;-74
2022/05/27 12:15:01;;;;;;;;;;;;;;;20.53;49.89;96789.84;5033797;28;19984;-75
2022/05/27 12:17:44;;;;;;;;;;;;;;;20.74;49.84;96804.69;5034919;28;19964;-74
2022/05/27 12:20:11;;;;;;;;;;;;;;;20.87;47.68;96809.44;5055916;28;19970;-74
2022/05/27 12:22:37;;;;;;;;;;;;;;;21.04;48.38;96809.06;5055683;28;19960;-74
2022/05/27 12:25:06;;;;;;;;;;;;;;;21.28;47.30;96805.72;5055465;28;19961;-75
2022/05/27 12:27:33;;;;;;;;;;;;;;;21.44;46.18;96807.22;5056017;28;19964;-75
2022/05/27 12:29:59;;;;;;;;;;;;;;;21.53;45.20;96818.09;5055879;28;20316;-74
2022/05/27 12:32:26;;;;;;;;;;;;;;;21.60;46.39;96866.59;5055989;28;19963;-75
2022/05/27 12:34:52;;;;;;;;;;;;;;;21.66;46.26;96872.72;5055461;28;19967;-75
2022/05/27 12:37:18;;;;;;;;;;;;;;;21.74;45.78;96853.44;5055558;28;19957;-76
2022/05/27 12:39:45;;;;;;;;;;;;;;;21.87;45.00;96852.78;5055441;28;19950;-76
2022/05/27 12:42:31;;;;;;;;;;;;;;;21.88;45.25;96864.25;5055564;28;19963;-76
2022/05/27 12:45:01;;;;;;;;;;;;;;;21.93;44.76;96858.09;5041467;28;19955;-75
2022/05/27 12:47:34;;;;;;;;;;;;;;;21.94;46.39;96870.34;5054671;28;19963;-75
2022/05/27 12:50:00;;;;;;;;;;;;;;;22.06;43.70;96833.38;5055582;28;19980;-75
2022/05/27 12:52:28;;;;;;;;;;;;;;;22.15;44.07;96854.94;5055603;28;19949;-75
2022/05/27 12:54:56;;;;;;;;;;;;;;;22.32;45.30;96859.88;5055254;28;19971;-76
2022/05/27 13:03:30;;;;;;;;;;;;;;;21.99;43.78;96839.06;5055555;28;20436;-74
2022/05/27 13:06:02;;;;;;;;;;;;;;;21.71;44.81;96861.97;5046349;28;19954;-75
2022/05/27 13:08:32;;;;;;;;;;;;;;;21.47;45.06;96846.69;5055170;28;19952;-75
2022/05/27 13:10:58;;;;;;;;;;;;;;;21.26;46.22;96859.31;5036766;28;19990;-75
2022/05/27 13:13:26;;;;;;;;;;;;;;;21.07;46.16;96859.16;5055650;28;20312;-74
2022/05/27 13:16:02;;;;;;;;;;;;;;;20.85;46.37;96867.56;5054682;28;19976;-74
2022/05/27 13:18:30;;;;;;;;;;;;;;;20.63;46.21;96854.56;5054865;28;19960;-75
2022/05/27 13:21:09;;;;;;;;;;;;;;;20.54;46.67;96863.38;5054637;28;20466;-76
2022/05/27 13:23:48;;;;;;;;;;;;;;;20.44;48.01;96866.88;5054565;28;19962;-75
2022/05/27 13:26:18;;;;;;;;;;;;;;;20.35;47.71;96860.47;5054768;28;20430;-76
2022/05/27 13:28:56;;;;;;;;;;;;;;;20.27;48.03;96864.50;5054661;28;19962;-76
2022/05/27 13:31:26;;;;;;;;;;;;;;;20.22;48.72;96883.97;5054235;28;19972;-76
2022/05/27 13:34:00;;;;;;;;;;;;;;;20.11;47.73;96869.06;5055226;28;20017;-76
2022/05/27 13:36:27;;;;;;;;;;;;;;;20.05;47.88;96864.81;5054636;28;19955;-76